WXM80 ListenWXM80 Stop

You find our weather info also at:

UK Metoffice

WeatherCloud

Weather Underground

Northeastern Weather Network

AWEKAS

Citizen Weather Observer Program (CWOP)

HAMweather, WeatherForYou, PWS Weather


Weather Underground History page Text

Daily Summary for September 10, 2017 Units:  Both    English   Metric
« Previous Day
Next Day »
Daily Weekly Monthly Yearly Custom
  High: Low: Average:
Temperature: 76.7 °F /  24.8 °C 58.5 °F /  14.7 °C 66 °F /  18.9 °C
Dew Point: 59.9 °F /  15.5 °C 52.2 °F /  11.2 °C 55.4 °F /  13 °C
Humidity: 87 % 51 % 70 %
Wind Speed: 8.0 mph /  12.9 km/h - 2.6 mph /  4.2 km/h
Wind Gust: 15.0 mph /  24.1 km/h - -
Wind:- - SSE
Pressure: 30.31 in /  1026.3 hPa 30.23 in /  1023.6 hPa -
Precipitation: 0.00 in /  0 mm    
Historical Graphs
 
 
Tabular Data for September 10, 2017
Time Temperature Dew Point Pressure Wind Wind Speed Wind Gust Humidity Rainfall Rate (Hourly)
00:03 62.0 °F /  16.7 °C 55.4 °F /  13 °C 30.23 in /  1023.6 hPa NNE 8.0 mph /  12.9 km/h 11.5 mph /  18.5 km/h 79 % 0.00 in /  0 mm
00:08 62.0 °F /  16.7 °C 55.4 °F /  13 °C 30.23 in /  1023.6 hPa NNE 5.8 mph /  9.3 km/h 10.4 mph /  16.7 km/h 79 % 0.00 in /  0 mm
00:13 62.0 °F /  16.7 °C 55.4 °F /  13 °C 30.23 in /  1023.6 hPa NNE 5.3 mph /  8.5 km/h 9.2 mph /  14.8 km/h 79 % 0.00 in /  0 mm
00:18 62.0 °F /  16.7 °C 55.4 °F /  13 °C 30.23 in /  1023.6 hPa NNE 5.8 mph /  9.3 km/h 10.4 mph /  16.7 km/h 79 % 0.00 in /  0 mm
00:23 62.0 °F /  16.7 °C 55.4 °F /  13 °C 30.23 in /  1023.6 hPa North 4.0 mph /  6.4 km/h 6.9 mph /  11.1 km/h 79 % 0.00 in /  0 mm
00:28 61.9 °F /  16.6 °C 55.3 °F /  12.9 °C 30.23 in /  1023.6 hPa ENE 5.8 mph /  9.3 km/h 9.2 mph /  14.8 km/h 79 % 0.00 in /  0 mm
00:33 61.9 °F /  16.6 °C 55.3 °F /  12.9 °C 30.23 in /  1023.6 hPa ENE 7.2 mph /  11.6 km/h 10.0 mph /  16.1 km/h 79 % 0.00 in /  0 mm
00:38 61.9 °F /  16.6 °C 55.3 °F /  12.9 °C 30.23 in /  1023.6 hPa NE 3.9 mph /  6.3 km/h 6.0 mph /  9.7 km/h 79 % 0.00 in /  0 mm
00:43 61.8 °F /  16.6 °C 55.2 °F /  12.9 °C 30.24 in /  1023.9 hPa NE 4.8 mph /  7.7 km/h 5.8 mph /  9.3 km/h 79 % 0.00 in /  0 mm
00:48 61.8 °F /  16.6 °C 55.2 °F /  12.9 °C 30.23 in /  1023.6 hPa NE 5.6 mph /  9 km/h 10.0 mph /  16.1 km/h 79 % 0.00 in /  0 mm
00:53 61.8 °F /  16.6 °C 55.2 °F /  12.9 °C 30.23 in /  1023.6 hPa North 3.7 mph /  6 km/h 9.0 mph /  14.5 km/h 79 % 0.00 in /  0 mm
00:58 61.7 °F /  16.5 °C 55.1 °F /  12.8 °C 30.24 in /  1023.9 hPa North 4.4 mph /  7.1 km/h 4.4 mph /  7.1 km/h 79 % 0.00 in /  0 mm
01:03 61.7 °F /  16.5 °C 55.5 °F /  13.1 °C 30.24 in /  1023.9 hPa NNE 3.5 mph /  5.6 km/h 10.4 mph /  16.7 km/h 80 % 0.00 in /  0 mm
01:08 61.6 °F /  16.4 °C 55.4 °F /  13 °C 30.24 in /  1023.9 hPa North 4.2 mph /  6.8 km/h 8.1 mph /  13 km/h 80 % 0.00 in /  0 mm
01:13 61.6 °F /  16.4 °C 55.4 °F /  13 °C 30.24 in /  1023.9 hPa NNW 4.2 mph /  6.8 km/h 7.0 mph /  11.3 km/h 80 % 0.00 in /  0 mm
01:19 61.4 °F /  16.3 °C 55.2 °F /  12.9 °C 30.23 in /  1023.6 hPa North 3.9 mph /  6.3 km/h 8.1 mph /  13 km/h 80 % 0.00 in /  0 mm
01:24 61.4 °F /  16.3 °C 55.2 °F /  12.9 °C 30.24 in /  1023.9 hPa NNE 3.2 mph /  5.1 km/h 6.0 mph /  9.7 km/h 80 % 0.00 in /  0 mm
01:29 61.3 °F /  16.3 °C 55.1 °F /  12.8 °C 30.24 in /  1023.9 hPa North 3.1 mph /  5 km/h 8.1 mph /  13 km/h 80 % 0.00 in /  0 mm
01:34 61.3 °F /  16.3 °C 55.1 °F /  12.8 °C 30.23 in /  1023.6 hPa North 1.7 mph /  2.7 km/h 4.6 mph /  7.4 km/h 80 % 0.00 in /  0 mm
01:39 61.2 °F /  16.2 °C 55.3 °F /  12.9 °C 30.23 in /  1023.6 hPa North 5.0 mph /  8 km/h 6.9 mph /  11.1 km/h 81 % 0.00 in /  0 mm
01:44 61.1 °F /  16.2 °C 54.9 °F /  12.7 °C 30.24 in /  1023.9 hPa North 3.0 mph /  4.8 km/h 9.2 mph /  14.8 km/h 80 % 0.00 in /  0 mm
01:49 61.0 °F /  16.1 °C 55.1 °F /  12.8 °C 30.24 in /  1023.9 hPa NNE 3.6 mph /  5.8 km/h 5.8 mph /  9.3 km/h 81 % 0.00 in /  0 mm
01:54 60.9 °F /  16.1 °C 55.0 °F /  12.8 °C 30.24 in /  1023.9 hPa North 4.8 mph /  7.7 km/h 6.9 mph /  11.1 km/h 81 % 0.00 in /  0 mm
01:59 60.9 °F /  16.1 °C 55.0 °F /  12.8 °C 30.24 in /  1023.9 hPa North 2.0 mph /  3.2 km/h 4.6 mph /  7.4 km/h 81 % 0.00 in /  0 mm
02:04 60.8 °F /  16 °C 54.9 °F /  12.7 °C 30.24 in /  1023.9 hPa NNE 5.0 mph /  8 km/h 6.9 mph /  11.1 km/h 81 % 0.00 in /  0 mm
02:09 60.7 °F /  15.9 °C 54.8 °F /  12.7 °C 30.24 in /  1023.9 hPa NNE 4.4 mph /  7.1 km/h 8.1 mph /  13 km/h 81 % 0.00 in /  0 mm
02:14 60.6 °F /  15.9 °C 55.1 °F /  12.8 °C 30.24 in /  1023.9 hPa NNE 2.2 mph /  3.5 km/h 6.9 mph /  11.1 km/h 82 % 0.00 in /  0 mm
02:19 60.5 °F /  15.8 °C 55.0 °F /  12.8 °C 30.24 in /  1023.9 hPa NNW 2.9 mph /  4.7 km/h 5.0 mph /  8 km/h 82 % 0.00 in /  0 mm
02:24 60.4 °F /  15.8 °C 54.9 °F /  12.7 °C 30.24 in /  1023.9 hPa NNW 4.4 mph /  7.1 km/h 8.1 mph /  13 km/h 82 % 0.00 in /  0 mm
02:29 60.4 °F /  15.8 °C 54.9 °F /  12.7 °C 30.24 in /  1023.9 hPa NNE 3.4 mph /  5.5 km/h 9.0 mph /  14.5 km/h 82 % 0.00 in /  0 mm
02:34 60.3 °F /  15.7 °C 55.1 °F /  12.8 °C 30.24 in /  1023.9 hPa North 1.5 mph /  2.4 km/h 5.8 mph /  9.3 km/h 83 % 0.00 in /  0 mm
02:39 60.2 °F /  15.7 °C 55.0 °F /  12.8 °C 30.24 in /  1023.9 hPa North 1.1 mph /  1.8 km/h 4.6 mph /  7.4 km/h 83 % 0.00 in /  0 mm
02:44 60.1 °F /  15.6 °C 54.9 °F /  12.7 °C 30.24 in /  1023.9 hPa NNE 4.2 mph /  6.8 km/h 8.1 mph /  13 km/h 83 % 0.00 in /  0 mm
02:49 60.0 °F /  15.6 °C 54.8 °F /  12.7 °C 30.24 in /  1023.9 hPa NNW 1.5 mph /  2.4 km/h 4.6 mph /  7.4 km/h 83 % 0.00 in /  0 mm
02:54 60.0 °F /  15.6 °C 54.8 °F /  12.7 °C 30.24 in /  1023.9 hPa NNW 3.6 mph /  5.8 km/h 6.9 mph /  11.1 km/h 83 % 0.00 in /  0 mm
03:00 59.9 °F /  15.5 °C 54.7 °F /  12.6 °C 30.24 in /  1023.9 hPa North 1.9 mph /  3.1 km/h 5.8 mph /  9.3 km/h 83 % 0.00 in /  0 mm
03:05 59.9 °F /  15.5 °C 54.7 °F /  12.6 °C 30.24 in /  1023.9 hPa NNW 3.7 mph /  6 km/h 8.1 mph /  13 km/h 83 % 0.00 in /  0 mm
03:10 59.8 °F /  15.4 °C 55.0 °F /  12.8 °C 30.24 in /  1023.9 hPa North 5.7 mph /  9.2 km/h 8.1 mph /  13 km/h 84 % 0.00 in /  0 mm
03:15 59.8 °F /  15.4 °C 54.6 °F /  12.6 °C 30.24 in /  1023.9 hPa NNE 2.6 mph /  4.2 km/h 8.1 mph /  13 km/h 83 % 0.00 in /  0 mm
03:20 59.8 °F /  15.4 °C 54.6 °F /  12.6 °C 30.24 in /  1023.9 hPa North 1.7 mph /  2.7 km/h 3.5 mph /  5.6 km/h 83 % 0.00 in /  0 mm
03:25 59.8 °F /  15.4 °C 54.6 °F /  12.6 °C 30.24 in /  1023.9 hPa Calm   2.3 mph /  3.7 km/h 83 % 0.00 in /  0 mm
03:30 59.7 °F /  15.4 °C 54.9 °F /  12.7 °C 30.24 in /  1023.9 hPa NNW 4.8 mph /  7.7 km/h 7.0 mph /  11.3 km/h 84 % 0.00 in /  0 mm
03:35 59.6 °F /  15.3 °C 54.4 °F /  12.4 °C 30.24 in /  1023.9 hPa NNW 2.0 mph /  3.2 km/h 6.9 mph /  11.1 km/h 83 % 0.00 in /  0 mm
03:40 59.6 °F /  15.3 °C 54.4 °F /  12.4 °C 30.24 in /  1023.9 hPa North 4.0 mph /  6.4 km/h 8.1 mph /  13 km/h 83 % 0.00 in /  0 mm
03:45 59.6 °F /  15.3 °C 54.4 °F /  12.4 °C 30.25 in /  1024.3 hPa North 3.1 mph /  5 km/h 5.8 mph /  9.3 km/h 83 % 0.00 in /  0 mm
03:50 59.5 °F /  15.3 °C 54.3 °F /  12.4 °C 30.25 in /  1024.3 hPa North 3.5 mph /  5.6 km/h 7.0 mph /  11.3 km/h 83 % 0.00 in /  0 mm
03:55 59.5 °F /  15.3 °C 54.7 °F /  12.6 °C 30.25 in /  1024.3 hPa North 1.4 mph /  2.3 km/h 3.5 mph /  5.6 km/h 84 % 0.00 in /  0 mm
04:00 59.5 °F /  15.3 °C 54.7 °F /  12.6 °C 30.25 in /  1024.3 hPa North 1.4 mph /  2.3 km/h 2.0 mph /  3.2 km/h 84 % 0.00 in /  0 mm
04:05 59.5 °F /  15.3 °C 54.3 °F /  12.4 °C 30.25 in /  1024.3 hPa NE 0.4 mph /  0.6 km/h 4.6 mph /  7.4 km/h 83 % 0.00 in /  0 mm
04:10 59.4 °F /  15.2 °C 54.6 °F /  12.6 °C 30.25 in /  1024.3 hPa Calm   2.3 mph /  3.7 km/h 84 % 0.00 in /  0 mm
04:15 59.4 °F /  15.2 °C 54.6 °F /  12.6 °C 30.25 in /  1024.3 hPa North 0.4 mph /  0.6 km/h 4.6 mph /  7.4 km/h 84 % 0.00 in /  0 mm
04:20 59.4 °F /  15.2 °C 54.6 °F /  12.6 °C 30.25 in /  1024.3 hPa Calm   2.3 mph /  3.7 km/h 84 % 0.00 in /  0 mm
04:26 59.3 °F /  15.2 °C 54.5 °F /  12.5 °C 30.25 in /  1024.3 hPa North 1.0 mph /  1.6 km/h 6.0 mph /  9.7 km/h 84 % 0.00 in /  0 mm
04:31 59.3 °F /  15.2 °C 54.5 °F /  12.5 °C 30.25 in /  1024.3 hPa Calm   3.5 mph /  5.6 km/h 84 % 0.00 in /  0 mm
04:36 59.2 °F /  15.1 °C 54.7 °F /  12.6 °C 30.25 in /  1024.3 hPa NNW 1.0 mph /  1.6 km/h 4.0 mph /  6.4 km/h 85 % 0.00 in /  0 mm
04:41 59.2 °F /  15.1 °C 54.7 °F /  12.6 °C 30.25 in /  1024.3 hPa NNW 1.0 mph /  1.6 km/h 4.0 mph /  6.4 km/h 85 % 0.00 in /  0 mm
04:42 59.2 °F /  15.1 °C 54.7 °F /  12.6 °C 30.25 in /  1024.3 hPa NE 4.3 mph /  6.9 km/h 6.9 mph /  11.1 km/h 85 % 0.00 in /  0 mm
04:47 59.1 °F /  15.1 °C 54.3 °F /  12.4 °C 30.25 in /  1024.3 hPa Calm     84 % 0.00 in /  0 mm
04:52 59.1 °F /  15.1 °C 54.6 °F /  12.6 °C 30.25 in /  1024.3 hPa North 3.7 mph /  6 km/h 6.9 mph /  11.1 km/h 85 % 0.00 in /  0 mm
04:57 59.0 °F /  15 °C 54.5 °F /  12.5 °C 30.25 in /  1024.3 hPa SW 1.4 mph /  2.3 km/h 3.5 mph /  5.6 km/h 85 % 0.00 in /  0 mm
05:02 59.0 °F /  15 °C 54.2 °F /  12.3 °C 30.25 in /  1024.3 hPa NNE 3.5 mph /  5.6 km/h 4.6 mph /  7.4 km/h 84 % 0.00 in /  0 mm
05:07 59.0 °F /  15 °C 54.5 °F /  12.5 °C 30.25 in /  1024.3 hPa Calm   3.5 mph /  5.6 km/h 85 % 0.00 in /  0 mm
05:13 59.0 °F /  15 °C 54.5 °F /  12.5 °C 30.25 in /  1024.3 hPa ENE 3.3 mph /  5.3 km/h 5.0 mph /  8 km/h 85 % 0.00 in /  0 mm
05:18 58.9 °F /  14.9 °C 54.4 °F /  12.4 °C 30.26 in /  1024.6 hPa NNE 3.9 mph /  6.3 km/h 5.8 mph /  9.3 km/h 85 % 0.00 in /  0 mm
05:23 58.9 °F /  14.9 °C 54.4 °F /  12.4 °C 30.26 in /  1024.6 hPa Calm     85 % 0.00 in /  0 mm
05:28 58.8 °F /  14.9 °C 54.3 °F /  12.4 °C 30.26 in /  1024.6 hPa NE 3.6 mph /  5.8 km/h 5.0 mph /  8 km/h 85 % 0.00 in /  0 mm
05:33 58.8 °F /  14.9 °C 54.3 °F /  12.4 °C 30.26 in /  1024.6 hPa NNE 1.6 mph /  2.6 km/h 6.0 mph /  9.7 km/h 85 % 0.00 in /  0 mm
05:38 58.8 °F /  14.9 °C 54.3 °F /  12.4 °C 30.26 in /  1024.6 hPa NE 4.1 mph /  6.6 km/h 8.1 mph /  13 km/h 85 % 0.00 in /  0 mm
05:43 58.7 °F /  14.8 °C 54.2 °F /  12.3 °C 30.26 in /  1024.6 hPa NW 1.4 mph /  2.3 km/h 10.4 mph /  16.7 km/h 85 % 0.00 in /  0 mm
05:48 58.7 °F /  14.8 °C 54.2 °F /  12.3 °C 30.26 in /  1024.6 hPa NNE 1.2 mph /  1.9 km/h 3.5 mph /  5.6 km/h 85 % 0.00 in /  0 mm
05:53 58.7 °F /  14.8 °C 54.2 °F /  12.3 °C 30.27 in /  1024.9 hPa NE 3.6 mph /  5.8 km/h 11.5 mph /  18.5 km/h 85 % 0.00 in /  0 mm
05:58 58.6 °F /  14.8 °C 54.1 °F /  12.3 °C 30.27 in /  1024.9 hPa NNW 1.1 mph /  1.8 km/h 4.6 mph /  7.4 km/h 85 % 0.00 in /  0 mm
06:03 58.7 °F /  14.8 °C 54.5 °F /  12.5 °C 30.27 in /  1024.9 hPa NE 5.5 mph /  8.9 km/h 5.8 mph /  9.3 km/h 86 % 0.00 in /  0 mm
06:09 58.6 °F /  14.8 °C 54.4 °F /  12.4 °C 30.27 in /  1024.9 hPa NNE 3.9 mph /  6.3 km/h 9.0 mph /  14.5 km/h 86 % 0.00 in /  0 mm
06:14 58.6 °F /  14.8 °C 54.1 °F /  12.3 °C 30.27 in /  1024.9 hPa NE 4.1 mph /  6.6 km/h 10.0 mph /  16.1 km/h 85 % 0.00 in /  0 mm
06:19 58.6 °F /  14.8 °C 54.4 °F /  12.4 °C 30.28 in /  1025.3 hPa North 7.4 mph /  11.9 km/h 11.5 mph /  18.5 km/h 86 % 0.00 in /  0 mm
06:24 58.5 °F /  14.7 °C 54.3 °F /  12.4 °C 30.28 in /  1025.3 hPa NNW 2.9 mph /  4.7 km/h 6.9 mph /  11.1 km/h 86 % 0.00 in /  0 mm
06:29 58.5 °F /  14.7 °C 54.3 °F /  12.4 °C 30.28 in /  1025.3 hPa North 0.8 mph /  1.3 km/h 3.5 mph /  5.6 km/h 86 % 0.00 in /  0 mm
06:34 58.5 °F /  14.7 °C 54.3 °F /  12.4 °C 30.28 in /  1025.3 hPa North 3.5 mph /  5.6 km/h 8.1 mph /  13 km/h 86 % 0.00 in /  0 mm
06:39 58.5 °F /  14.7 °C 54.3 °F /  12.4 °C 30.28 in /  1025.3 hPa NNW 2.9 mph /  4.7 km/h 10.4 mph /  16.7 km/h 86 % 0.00 in /  0 mm
06:44 58.5 °F /  14.7 °C 54.3 °F /  12.4 °C 30.29 in /  1025.6 hPa North 3.1 mph /  5 km/h 6.9 mph /  11.1 km/h 86 % 0.00 in /  0 mm
06:49 58.5 °F /  14.7 °C 54.6 °F /  12.6 °C 30.29 in /  1025.6 hPa North 5.3 mph /  8.5 km/h 9.2 mph /  14.8 km/h 87 % 0.00 in /  0 mm
06:54 58.6 °F /  14.8 °C 54.4 °F /  12.4 °C 30.29 in /  1025.6 hPa NNE 3.7 mph /  6 km/h 8.1 mph /  13 km/h 86 % 0.00 in /  0 mm
06:59 58.6 °F /  14.8 °C 54.4 °F /  12.4 °C 30.29 in /  1025.6 hPa NNW 7.3 mph /  11.7 km/h 13.8 mph /  22.2 km/h 86 % 0.00 in /  0 mm
07:04 58.6 °F /  14.8 °C 54.4 °F /  12.4 °C 30.30 in /  1026 hPa North 6.1 mph /  9.8 km/h 11.5 mph /  18.5 km/h 86 % 0.00 in /  0 mm
07:09 58.7 °F /  14.8 °C 54.5 °F /  12.5 °C 30.30 in /  1026 hPa NNW 7.1 mph /  11.4 km/h 12.7 mph /  20.4 km/h 86 % 0.00 in /  0 mm
07:14 58.7 °F /  14.8 °C 54.5 °F /  12.5 °C 30.30 in /  1026 hPa NNW 5.2 mph /  8.4 km/h 8.1 mph /  13 km/h 86 % 0.00 in /  0 mm
07:19 58.7 °F /  14.8 °C 54.5 °F /  12.5 °C 30.30 in /  1026 hPa NNE 4.6 mph /  7.4 km/h 7.0 mph /  11.3 km/h 86 % 0.00 in /  0 mm
07:24 58.8 °F /  14.9 °C 54.6 °F /  12.6 °C 30.30 in /  1026 hPa NNE 5.4 mph /  8.7 km/h 11.5 mph /  18.5 km/h 86 % 0.00 in /  0 mm
07:29 58.8 °F /  14.9 °C 54.6 °F /  12.6 °C 30.30 in /  1026 hPa NNE 7.6 mph /  12.2 km/h 11.5 mph /  18.5 km/h 86 % 0.00 in /  0 mm
07:34 58.8 °F /  14.9 °C 54.6 °F /  12.6 °C 30.30 in /  1026 hPa NNE 4.6 mph /  7.4 km/h 6.9 mph /  11.1 km/h 86 % 0.00 in /  0 mm
07:39 58.9 °F /  14.9 °C 54.7 °F /  12.6 °C 30.30 in /  1026 hPa NNW 6.5 mph /  10.5 km/h 9.0 mph /  14.5 km/h 86 % 0.00 in /  0 mm
07:44 59.0 °F /  15 °C 54.8 °F /  12.7 °C 30.30 in /  1026 hPa North 5.5 mph /  8.9 km/h 11.5 mph /  18.5 km/h 86 % 0.00 in /  0 mm
07:49 59.0 °F /  15 °C 54.8 °F /  12.7 °C 30.30 in /  1026 hPa NNE 4.6 mph /  7.4 km/h 9.2 mph /  14.8 km/h 86 % 0.00 in /  0 mm
07:54 59.2 °F /  15.1 °C 55.0 °F /  12.8 °C 30.30 in /  1026 hPa NE 5.7 mph /  9.2 km/h 9.2 mph /  14.8 km/h 86 % 0.00 in /  0 mm
07:59 59.3 °F /  15.2 °C 54.8 °F /  12.7 °C 30.30 in /  1026 hPa NE 7.1 mph /  11.4 km/h 15.0 mph /  24.1 km/h 85 % 0.00 in /  0 mm
08:04 59.3 °F /  15.2 °C 54.8 °F /  12.7 °C 30.30 in /  1026 hPa North 3.6 mph /  5.8 km/h 8.1 mph /  13 km/h 85 % 0.00 in /  0 mm
08:09 59.4 °F /  15.2 °C 54.9 °F /  12.7 °C 30.30 in /  1026 hPa NE 4.3 mph /  6.9 km/h 8.1 mph /  13 km/h 85 % 0.00 in /  0 mm
08:15 59.5 °F /  15.3 °C 55.0 °F /  12.8 °C 30.30 in /  1026 hPa NNW 3.7 mph /  6 km/h 5.8 mph /  9.3 km/h 85 % 0.00 in /  0 mm
08:20 59.6 °F /  15.3 °C 54.8 °F /  12.7 °C 30.30 in /  1026 hPa NNE 5.4 mph /  8.7 km/h 10.4 mph /  16.7 km/h 84 % 0.00 in /  0 mm
08:25 59.7 °F /  15.4 °C 55.2 °F /  12.9 °C 30.30 in /  1026 hPa NNE 3.3 mph /  5.3 km/h 8.0 mph /  12.9 km/h 85 % 0.00 in /  0 mm
08:29 59.8 °F /  15.4 °C 55.0 °F /  12.8 °C 30.30 in /  1026 hPa NW 7.2 mph /  11.6 km/h 11.5 mph /  18.5 km/h 84 % 0.00 in /  0 mm
08:34 59.9 °F /  15.5 °C 55.1 °F /  12.8 °C 30.30 in /  1026 hPa NNE 7.9 mph /  12.7 km/h 10.4 mph /  16.7 km/h 84 % 0.00 in /  0 mm
08:39 60.1 °F /  15.6 °C 55.2 °F /  12.9 °C 30.30 in /  1026 hPa NE 6.9 mph /  11.1 km/h 10.4 mph /  16.7 km/h 84 % 0.00 in /  0 mm
08:44 60.3 °F /  15.7 °C 55.1 °F /  12.8 °C 30.30 in /  1026 hPa ENE 6.5 mph /  10.5 km/h 10.4 mph /  16.7 km/h 83 % 0.00 in /  0 mm
08:49 60.5 °F /  15.8 °C 55.0 °F /  12.8 °C 30.30 in /  1026 hPa NNE 4.9 mph /  7.9 km/h 13.8 mph /  22.2 km/h 82 % 0.00 in /  0 mm
08:54 60.7 °F /  15.9 °C 55.2 °F /  12.9 °C 30.30 in /  1026 hPa NNE 5.7 mph /  9.2 km/h 10.4 mph /  16.7 km/h 82 % 0.00 in /  0 mm
08:59 61.0 °F /  16.1 °C 55.1 °F /  12.8 °C 30.31 in /  1026.3 hPa NNE 2.7 mph /  4.3 km/h 8.1 mph /  13 km/h 81 % 0.00 in /  0 mm
09:04 61.2 °F /  16.2 °C 55.3 °F /  12.9 °C 30.30 in /  1026 hPa NNW 5.6 mph /  9 km/h 10.4 mph /  16.7 km/h 81 % 0.00 in /  0 mm
09:09 61.3 °F /  16.3 °C 55.4 °F /  13 °C 30.31 in /  1026.3 hPa NNE 3.7 mph /  6 km/h 4.6 mph /  7.4 km/h 81 % 0.00 in /  0 mm
09:14 61.5 °F /  16.4 °C 55.3 °F /  12.9 °C 30.31 in /  1026.3 hPa NE 6.1 mph /  9.8 km/h 10.0 mph /  16.1 km/h 80 % 0.00 in /  0 mm
09:19 61.6 °F /  16.4 °C 55.4 °F /  13 °C 30.31 in /  1026.3 hPa NNE 4.2 mph /  6.8 km/h 7.0 mph /  11.3 km/h 80 % 0.00 in /  0 mm
09:24 61.8 °F /  16.6 °C 55.6 °F /  13.1 °C 30.31 in /  1026.3 hPa NNE 5.8 mph /  9.3 km/h 10.0 mph /  16.1 km/h 80 % 0.00 in /  0 mm
09:29 62.0 °F /  16.7 °C 55.8 °F /  13.2 °C 30.31 in /  1026.3 hPa NE 3.6 mph /  5.8 km/h 6.9 mph /  11.1 km/h 80 % 0.00 in /  0 mm
09:34 62.1 °F /  16.7 °C 55.9 °F /  13.3 °C 30.31 in /  1026.3 hPa NNE 2.7 mph /  4.3 km/h 5.8 mph /  9.3 km/h 80 % 0.00 in /  0 mm
09:39 62.3 °F /  16.8 °C 55.7 °F /  13.2 °C 30.31 in /  1026.3 hPa NNE 6.0 mph /  9.7 km/h 11.5 mph /  18.5 km/h 79 % 0.00 in /  0 mm
09:44 62.7 °F /  17.1 °C 56.1 °F /  13.4 °C 30.31 in /  1026.3 hPa NE 5.4 mph /  8.7 km/h 13.8 mph /  22.2 km/h 79 % 0.00 in /  0 mm
09:49 63.2 °F /  17.3 °C 55.9 °F /  13.3 °C 30.31 in /  1026.3 hPa ENE 6.6 mph /  10.6 km/h 11.5 mph /  18.5 km/h 77 % 0.00 in /  0 mm
09:54 63.7 °F /  17.6 °C 56.0 °F /  13.3 °C 30.31 in /  1026.3 hPa ENE 4.6 mph /  7.4 km/h 12.7 mph /  20.4 km/h 76 % 0.00 in /  0 mm
09:59 64.1 °F /  17.8 °C 56.4 °F /  13.6 °C 30.31 in /  1026.3 hPa NNE 5.1 mph /  8.2 km/h 10.4 mph /  16.7 km/h 76 % 0.00 in /  0 mm
10:04 64.4 °F /  18 °C 56.3 °F /  13.5 °C 30.31 in /  1026.3 hPa ENE 5.4 mph /  8.7 km/h 6.9 mph /  11.1 km/h 75 % 0.00 in /  0 mm
10:09 64.6 °F /  18.1 °C 56.5 °F /  13.6 °C 30.31 in /  1026.3 hPa NNE 4.5 mph /  7.2 km/h 6.9 mph /  11.1 km/h 75 % 0.00 in /  0 mm
10:15 64.8 °F /  18.2 °C 56.3 °F /  13.5 °C 30.31 in /  1026.3 hPa ENE 4.1 mph /  6.6 km/h 5.8 mph /  9.3 km/h 74 % 0.00 in /  0 mm
10:20 64.8 °F /  18.2 °C 55.9 °F /  13.3 °C 30.31 in /  1026.3 hPa NNE 4.1 mph /  6.6 km/h 11.5 mph /  18.5 km/h 73 % 0.00 in /  0 mm
10:25 64.9 °F /  18.3 °C 56.0 °F /  13.3 °C 30.31 in /  1026.3 hPa ENE 3.0 mph /  4.8 km/h 6.9 mph /  11.1 km/h 73 % 0.00 in /  0 mm
10:30 65.0 °F /  18.3 °C 56.5 °F /  13.6 °C 30.31 in /  1026.3 hPa North 5.6 mph /  9 km/h 11.5 mph /  18.5 km/h 74 % 0.00 in /  0 mm
10:35 65.0 °F /  18.3 °C 56.5 °F /  13.6 °C 30.31 in /  1026.3 hPa North 6.4 mph /  10.3 km/h 8.1 mph /  13 km/h 74 % 0.00 in /  0 mm
10:40 65.2 °F /  18.4 °C 56.7 °F /  13.7 °C 30.31 in /  1026.3 hPa ENE 4.3 mph /  6.9 km/h 10.0 mph /  16.1 km/h 74 % 0.00 in /  0 mm
10:45 65.3 °F /  18.5 °C 56.8 °F /  13.8 °C 30.31 in /  1026.3 hPa NNE 4.6 mph /  7.4 km/h 8.1 mph /  13 km/h 74 % 0.00 in /  0 mm
10:50 65.6 °F /  18.7 °C 56.7 °F /  13.7 °C 30.31 in /  1026.3 hPa North 5.5 mph /  8.9 km/h 10.4 mph /  16.7 km/h 73 % 0.00 in /  0 mm
10:55 65.9 °F /  18.8 °C 56.6 °F /  13.7 °C 30.31 in /  1026.3 hPa North 4.5 mph /  7.2 km/h 10.4 mph /  16.7 km/h 72 % 0.00 in /  0 mm
11:00 66.3 °F /  19.1 °C 57.0 °F /  13.9 °C 30.31 in /  1026.3 hPa NNE 5.2 mph /  8.4 km/h 10.4 mph /  16.7 km/h 72 % 0.00 in /  0 mm
11:05 66.6 °F /  19.2 °C 57.3 °F /  14.1 °C 30.31 in /  1026.3 hPa North 3.7 mph /  6 km/h 6.9 mph /  11.1 km/h 72 % 0.00 in /  0 mm
11:10 67.1 °F /  19.5 °C 57.4 °F /  14.1 °C 30.31 in /  1026.3 hPa North 2.7 mph /  4.3 km/h 5.0 mph /  8 km/h 71 % 0.00 in /  0 mm
11:15 67.8 °F /  19.9 °C 57.7 °F /  14.3 °C 30.31 in /  1026.3 hPa North 2.6 mph /  4.2 km/h 5.8 mph /  9.3 km/h 70 % 0.00 in /  0 mm
11:20 68.7 °F /  20.4 °C 57.7 °F /  14.3 °C 30.31 in /  1026.3 hPa NNE 4.1 mph /  6.6 km/h 7.0 mph /  11.3 km/h 68 % 0.00 in /  0 mm
11:25 69.6 °F /  20.9 °C 58.2 °F /  14.6 °C 30.31 in /  1026.3 hPa North 4.7 mph /  7.6 km/h 8.1 mph /  13 km/h 67 % 0.00 in /  0 mm
11:30 70.3 °F /  21.3 °C 58.8 °F /  14.9 °C 30.30 in /  1026 hPa NNE 3.0 mph /  4.8 km/h 4.6 mph /  7.4 km/h 67 % 0.00 in /  0 mm
11:35 71.0 °F /  21.7 °C 59.9 °F /  15.5 °C 30.30 in /  1026 hPa NNE 2.6 mph /  4.2 km/h 5.0 mph /  8 km/h 68 % 0.00 in /  0 mm
11:40 71.7 °F /  22.1 °C 58.9 °F /  14.9 °C 30.31 in /  1026.3 hPa NNW 3.6 mph /  5.8 km/h 5.0 mph /  8 km/h 64 % 0.00 in /  0 mm
11:45 72.1 °F /  22.3 °C 59.7 °F /  15.4 °C 30.30 in /  1026 hPa North 4.1 mph /  6.6 km/h 7.0 mph /  11.3 km/h 65 % 0.00 in /  0 mm
11:51 72.6 °F /  22.6 °C 59.3 °F /  15.2 °C 30.31 in /  1026.3 hPa NNE 2.0 mph /  3.2 km/h 8.0 mph /  12.9 km/h 63 % 0.00 in /  0 mm
11:56 73.0 °F /  22.8 °C 58.3 °F /  14.6 °C 30.31 in /  1026.3 hPa NNE 3.0 mph /  4.8 km/h 6.0 mph /  9.7 km/h 60 % 0.00 in /  0 mm
12:01 73.3 °F /  22.9 °C 58.6 °F /  14.8 °C 30.31 in /  1026.3 hPa NE 1.9 mph /  3.1 km/h 3.0 mph /  4.8 km/h 60 % 0.00 in /  0 mm
12:06 73.7 °F /  23.2 °C 58.9 °F /  14.9 °C 30.31 in /  1026.3 hPa NNE 1.2 mph /  1.9 km/h 4.6 mph /  7.4 km/h 60 % 0.00 in /  0 mm
12:11 74.0 °F /  23.3 °C 59.7 °F /  15.4 °C 30.30 in /  1026 hPa NNE 2.0 mph /  3.2 km/h 6.0 mph /  9.7 km/h 61 % 0.00 in /  0 mm
12:16 74.3 °F /  23.5 °C 58.6 °F /  14.8 °C 30.30 in /  1026 hPa NNE 1.0 mph /  1.6 km/h 7.0 mph /  11.3 km/h 58 % 0.00 in /  0 mm
12:21 74.5 °F /  23.6 °C 58.8 °F /  14.9 °C 30.30 in /  1026 hPa NE 3.0 mph /  4.8 km/h 6.0 mph /  9.7 km/h 58 % 0.00 in /  0 mm
12:26 74.7 °F /  23.7 °C 58.9 °F /  14.9 °C 30.30 in /  1026 hPa NNE 1.0 mph /  1.6 km/h 5.0 mph /  8 km/h 58 % 0.00 in /  0 mm
12:31 74.6 °F /  23.7 °C 59.3 °F /  15.2 °C 30.30 in /  1026 hPa NNE 1.0 mph /  1.6 km/h 5.0 mph /  8 km/h 59 % 0.00 in /  0 mm
12:36 74.7 °F /  23.7 °C 59.5 °F /  15.3 °C 30.30 in /  1026 hPa NNE 1.0 mph /  1.6 km/h 6.0 mph /  9.7 km/h 59 % 0.00 in /  0 mm
12:41 74.8 °F /  23.8 °C 58.5 °F /  14.7 °C 30.30 in /  1026 hPa NNE 1.0 mph /  1.6 km/h 5.0 mph /  8 km/h 57 % 0.00 in /  0 mm
12:46 75.0 °F /  23.9 °C 59.2 °F /  15.1 °C 30.30 in /  1026 hPa Calm   4.0 mph /  6.4 km/h 58 % 0.00 in /  0 mm
12:51 75.3 °F /  24.1 °C 59.5 °F /  15.3 °C 30.30 in /  1026 hPa ENE 1.0 mph /  1.6 km/h 2.0 mph /  3.2 km/h 58 % 0.00 in /  0 mm
12:56 75.5 °F /  24.2 °C 59.2 °F /  15.1 °C 30.30 in /  1026 hPa Calm   2.0 mph /  3.2 km/h 57 % 0.00 in /  0 mm
13:01 75.8 °F /  24.3 °C 59.0 °F /  15 °C 30.30 in /  1026 hPa North 2.0 mph /  3.2 km/h 4.6 mph /  7.4 km/h 56 % 0.00 in /  0 mm
13:06 75.9 °F /  24.4 °C 59.1 °F /  15.1 °C 30.29 in /  1025.6 hPa NNE 2.9 mph /  4.7 km/h 4.0 mph /  6.4 km/h 56 % 0.00 in /  0 mm
13:11 75.8 °F /  24.3 °C 58.0 °F /  14.4 °C 30.29 in /  1025.6 hPa ENE 1.1 mph /  1.8 km/h 4.0 mph /  6.4 km/h 54 % 0.00 in /  0 mm
13:16 75.6 °F /  24.2 °C 58.8 °F /  14.9 °C 30.29 in /  1025.6 hPa NE 1.4 mph /  2.3 km/h 2.3 mph /  3.7 km/h 56 % 0.00 in /  0 mm
13:21 75.7 °F /  24.3 °C 57.9 °F /  14.4 °C 30.29 in /  1025.6 hPa NNW 1.2 mph /  1.9 km/h 3.5 mph /  5.6 km/h 54 % 0.00 in /  0 mm
13:26 75.7 °F /  24.3 °C 57.9 °F /  14.4 °C 30.29 in /  1025.6 hPa NE 0.9 mph /  1.4 km/h 2.3 mph /  3.7 km/h 54 % 0.00 in /  0 mm
13:31 75.8 °F /  24.3 °C 59.0 °F /  15 °C 30.29 in /  1025.6 hPa ENE 1.0 mph /  1.6 km/h 3.5 mph /  5.6 km/h 56 % 0.00 in /  0 mm
13:36 75.8 °F /  24.3 °C 56.9 °F /  13.8 °C 30.28 in /  1025.3 hPa ENE 0.5 mph /  0.8 km/h 3.5 mph /  5.6 km/h 52 % 0.00 in /  0 mm
13:39 75.8 °F /  24.3 °C 59.0 °F /  15 °C 30.29 in /  1025.6 hPa NE 1.4 mph /  2.3 km/h 3.5 mph /  5.6 km/h 56 % 0.00 in /  0 mm
13:44 75.8 °F /  24.3 °C 58.5 °F /  14.7 °C 30.29 in /  1025.6 hPa NE 0.1 mph /  0.2 km/h 2.3 mph /  3.7 km/h 55 % 0.00 in /  0 mm
13:49 75.9 °F /  24.4 °C 58.1 °F /  14.5 °C 30.28 in /  1025.3 hPa NNE 0.4 mph /  0.6 km/h 2.3 mph /  3.7 km/h 54 % 0.00 in /  0 mm
13:54 76.0 °F /  24.4 °C 57.6 °F /  14.2 °C 30.29 in /  1025.6 hPa NNE 0.1 mph /  0.2 km/h 1.2 mph /  1.9 km/h 53 % 0.00 in /  0 mm
13:59 76.0 °F /  24.4 °C 58.2 °F /  14.6 °C 30.28 in /  1025.3 hPa NNE 0.6 mph /  1 km/h 1.2 mph /  1.9 km/h 54 % 0.00 in /  0 mm
14:04 76.2 °F /  24.6 °C 58.9 °F /  14.9 °C 30.28 in /  1025.3 hPa NNE 0.8 mph /  1.3 km/h 2.3 mph /  3.7 km/h 55 % 0.00 in /  0 mm
14:10 76.1 °F /  24.5 °C 56.7 °F /  13.7 °C 30.28 in /  1025.3 hPa NNE 0.3 mph /  0.5 km/h 1.2 mph /  1.9 km/h 51 % 0.00 in /  0 mm
14:15 76.3 °F /  24.6 °C 58.4 °F /  14.7 °C 30.28 in /  1025.3 hPa Calm     54 % 0.00 in /  0 mm
14:20 76.4 °F /  24.7 °C 58.0 °F /  14.4 °C 30.28 in /  1025.3 hPa NW 0.7 mph /  1.1 km/h 2.3 mph /  3.7 km/h 53 % 0.00 in /  0 mm
14:25 76.5 °F /  24.7 °C 57.6 °F /  14.2 °C 30.28 in /  1025.3 hPa NW 0.2 mph /  0.3 km/h 4.6 mph /  7.4 km/h 52 % 0.00 in /  0 mm
14:30 76.4 °F /  24.7 °C 59.0 °F /  15 °C 30.28 in /  1025.3 hPa NNE 1.4 mph /  2.3 km/h 3.5 mph /  5.6 km/h 55 % 0.00 in /  0 mm
14:35 76.5 °F /  24.7 °C 58.6 °F /  14.8 °C 30.28 in /  1025.3 hPa North 0.3 mph /  0.5 km/h 4.0 mph /  6.4 km/h 54 % 0.00 in /  0 mm
14:40 76.5 °F /  24.7 °C 58.1 °F /  14.5 °C 30.28 in /  1025.3 hPa North 2.5 mph /  4 km/h 4.6 mph /  7.4 km/h 53 % 0.00 in /  0 mm
14:45 76.5 °F /  24.7 °C 57.0 °F /  13.9 °C 30.27 in /  1024.9 hPa West 1.5 mph /  2.4 km/h 3.5 mph /  5.6 km/h 51 % 0.00 in /  0 mm
14:50 76.7 °F /  24.8 °C 57.7 °F /  14.3 °C 30.27 in /  1024.9 hPa North 2.2 mph /  3.5 km/h 4.0 mph /  6.4 km/h 52 % 0.00 in /  0 mm
14:55 76.7 °F /  24.8 °C 58.8 °F /  14.9 °C 30.27 in /  1024.9 hPa Calm   1.2 mph /  1.9 km/h 54 % 0.00 in /  0 mm
15:00 76.7 °F /  24.8 °C 57.2 °F /  14 °C 30.27 in /  1024.9 hPa North 0.9 mph /  1.4 km/h 2.3 mph /  3.7 km/h 51 % 0.00 in /  0 mm
15:05 76.7 °F /  24.8 °C 57.7 °F /  14.3 °C 30.27 in /  1024.9 hPa NNW 0.5 mph /  0.8 km/h 3.0 mph /  4.8 km/h 52 % 0.00 in /  0 mm
15:10 76.4 °F /  24.7 °C 57.5 °F /  14.2 °C 30.27 in /  1024.9 hPa West 2.4 mph /  3.9 km/h 3.5 mph /  5.6 km/h 52 % 0.00 in /  0 mm
15:15 76.3 °F /  24.6 °C 57.9 °F /  14.4 °C 30.27 in /  1024.9 hPa Calm   1.2 mph /  1.9 km/h 53 % 0.00 in /  0 mm
15:20 76.2 °F /  24.6 °C 58.9 °F /  14.9 °C 30.27 in /  1024.9 hPa NNW 1.0 mph /  1.6 km/h 3.5 mph /  5.6 km/h 55 % 0.00 in /  0 mm
15:25 76.1 °F /  24.5 °C 57.7 °F /  14.3 °C 30.27 in /  1024.9 hPa Calm   2.3 mph /  3.7 km/h 53 % 0.00 in /  0 mm
15:30 76.2 °F /  24.6 °C 57.3 °F /  14.1 °C 30.27 in /  1024.9 hPa NNW 1.7 mph /  2.7 km/h 3.5 mph /  5.6 km/h 52 % 0.00 in /  0 mm
15:36 76.1 °F /  24.5 °C 57.7 °F /  14.3 °C 30.27 in /  1024.9 hPa NNW 2.0 mph /  3.2 km/h 4.0 mph /  6.4 km/h 53 % 0.00 in /  0 mm
15:41 76.1 °F /  24.5 °C 57.2 °F /  14 °C 30.27 in /  1024.9 hPa NNW 1.0 mph /  1.6 km/h 5.0 mph /  8 km/h 52 % 0.00 in /  0 mm
15:46 75.8 °F /  24.3 °C 57.9 °F /  14.4 °C 30.27 in /  1024.9 hPa North 2.0 mph /  3.2 km/h 6.0 mph /  9.7 km/h 54 % 0.00 in /  0 mm
15:51 75.7 °F /  24.3 °C 58.4 °F /  14.7 °C 30.27 in /  1024.9 hPa Calm   3.0 mph /  4.8 km/h 55 % 0.00 in /  0 mm
15:56 75.7 °F /  24.3 °C 57.9 °F /  14.4 °C 30.27 in /  1024.9 hPa NW 2.0 mph /  3.2 km/h 7.0 mph /  11.3 km/h 54 % 0.00 in /  0 mm
16:01 75.9 °F /  24.4 °C 57.5 °F /  14.2 °C 30.27 in /  1024.9 hPa NNW 0.3 mph /  0.5 km/h 2.3 mph /  3.7 km/h 53 % 0.00 in /  0 mm
16:06 76.0 °F /  24.4 °C 57.6 °F /  14.2 °C 30.27 in /  1024.9 hPa Calm   4.0 mph /  6.4 km/h 53 % 0.00 in /  0 mm
16:11 76.1 °F /  24.5 °C 57.7 °F /  14.3 °C 30.27 in /  1024.9 hPa NNW 2.0 mph /  3.2 km/h 4.0 mph /  6.4 km/h 53 % 0.00 in /  0 mm
16:16 76.2 °F /  24.6 °C 56.7 °F /  13.7 °C 30.27 in /  1024.9 hPa Calm   4.0 mph /  6.4 km/h 51 % 0.00 in /  0 mm
16:21 76.2 °F /  24.6 °C 57.8 °F /  14.3 °C 30.27 in /  1024.9 hPa NW 1.0 mph /  1.6 km/h 5.0 mph /  8 km/h 53 % 0.00 in /  0 mm
16:26 76.0 °F /  24.4 °C 58.2 °F /  14.6 °C 30.27 in /  1024.9 hPa NW 1.0 mph /  1.6 km/h 4.0 mph /  6.4 km/h 54 % 0.00 in /  0 mm
16:31 75.7 °F /  24.3 °C 57.9 °F /  14.4 °C 30.27 in /  1024.9 hPa NW 2.0 mph /  3.2 km/h 4.0 mph /  6.4 km/h 54 % 0.00 in /  0 mm
16:36 75.1 °F /  23.9 °C 57.4 °F /  14.1 °C 30.28 in /  1025.3 hPa North 1.0 mph /  1.6 km/h 6.0 mph /  9.7 km/h 54 % 0.00 in /  0 mm
16:41 74.5 °F /  23.6 °C 57.3 °F /  14.1 °C 30.27 in /  1024.9 hPa North 1.0 mph /  1.6 km/h 5.0 mph /  8 km/h 55 % 0.00 in /  0 mm
16:46 74.2 °F /  23.4 °C 57.0 °F /  13.9 °C 30.27 in /  1024.9 hPa North 1.7 mph /  2.7 km/h 5.0 mph /  8 km/h 55 % 0.00 in /  0 mm
16:51 74.0 °F /  23.3 °C 56.8 °F /  13.8 °C 30.27 in /  1024.9 hPa NNW 1.0 mph /  1.6 km/h 4.0 mph /  6.4 km/h 55 % 0.00 in /  0 mm
16:56 73.7 °F /  23.2 °C 56.0 °F /  13.3 °C 30.28 in /  1025.3 hPa NNW 3.0 mph /  4.8 km/h 6.0 mph /  9.7 km/h 54 % 0.00 in /  0 mm
17:01 73.3 °F /  22.9 °C 57.1 °F /  13.9 °C 30.28 in /  1025.3 hPa NW 1.1 mph /  1.8 km/h 2.3 mph /  3.7 km/h 57 % 0.00 in /  0 mm
17:06 73.2 °F /  22.9 °C 56.6 °F /  13.7 °C 30.28 in /  1025.3 hPa NNW 1.0 mph /  1.6 km/h 6.0 mph /  9.7 km/h 56 % 0.00 in /  0 mm
17:11 73.1 °F /  22.8 °C 56.0 °F /  13.3 °C 30.27 in /  1024.9 hPa NW 1.8 mph /  2.9 km/h 4.6 mph /  7.4 km/h 55 % 0.00 in /  0 mm
17:16 73.1 °F /  22.8 °C 57.4 °F /  14.1 °C 30.28 in /  1025.3 hPa WNW 0.5 mph /  0.8 km/h 2.3 mph /  3.7 km/h 58 % 0.00 in /  0 mm
17:21 73.0 °F /  22.8 °C 56.9 °F /  13.8 °C 30.27 in /  1024.9 hPa NW 1.0 mph /  1.6 km/h 3.5 mph /  5.6 km/h 57 % 0.00 in /  0 mm
17:26 72.7 °F /  22.6 °C 56.1 °F /  13.4 °C 30.28 in /  1025.3 hPa North 0.9 mph /  1.4 km/h 2.3 mph /  3.7 km/h 56 % 0.00 in /  0 mm
17:29 72.6 °F /  22.6 °C 56.5 °F /  13.6 °C 30.28 in /  1025.3 hPa NNE 4.0 mph /  6.4 km/h 6.9 mph /  11.1 km/h 57 % 0.00 in /  0 mm
17:34 72.3 °F /  22.4 °C 56.7 °F /  13.7 °C 30.28 in /  1025.3 hPa West 0.2 mph /  0.3 km/h 3.5 mph /  5.6 km/h 58 % 0.00 in /  0 mm
17:39 72.1 °F /  22.3 °C 56.5 °F /  13.6 °C 30.28 in /  1025.3 hPa NNW 0.9 mph /  1.4 km/h 3.5 mph /  5.6 km/h 58 % 0.00 in /  0 mm
17:44 71.8 °F /  22.1 °C 56.2 °F /  13.4 °C 30.28 in /  1025.3 hPa North 1.5 mph /  2.4 km/h 4.0 mph /  6.4 km/h 58 % 0.00 in /  0 mm
17:49 71.5 °F /  21.9 °C 55.5 °F /  13.1 °C 30.28 in /  1025.3 hPa NW 1.4 mph /  2.3 km/h 5.8 mph /  9.3 km/h 57 % 0.00 in /  0 mm
17:54 71.3 °F /  21.8 °C 55.8 °F /  13.2 °C 30.28 in /  1025.3 hPa SW 1.9 mph /  3.1 km/h 4.6 mph /  7.4 km/h 58 % 0.00 in /  0 mm
17:59 71.2 °F /  21.8 °C 55.7 °F /  13.2 °C 30.28 in /  1025.3 hPa WNW 0.1 mph /  0.2 km/h 1.2 mph /  1.9 km/h 58 % 0.00 in /  0 mm
18:04 71.0 °F /  21.7 °C 55.9 °F /  13.3 °C 30.28 in /  1025.3 hPa NW 1.7 mph /  2.7 km/h 4.6 mph /  7.4 km/h 59 % 0.00 in /  0 mm
18:09 70.8 °F /  21.6 °C 56.2 °F /  13.4 °C 30.28 in /  1025.3 hPa West 0.8 mph /  1.3 km/h 5.8 mph /  9.3 km/h 60 % 0.00 in /  0 mm
18:14 70.6 °F /  21.4 °C 54.6 °F /  12.6 °C 30.28 in /  1025.3 hPa WNW 2.8 mph /  4.5 km/h 4.0 mph /  6.4 km/h 57 % 0.00 in /  0 mm
18:19 70.4 °F /  21.3 °C 55.4 °F /  13 °C 30.28 in /  1025.3 hPa North 4.7 mph /  7.6 km/h 8.1 mph /  13 km/h 59 % 0.00 in /  0 mm
18:24 70.2 °F /  21.2 °C 54.2 °F /  12.3 °C 30.28 in /  1025.3 hPa North 2.4 mph /  3.9 km/h 5.0 mph /  8 km/h 57 % 0.00 in /  0 mm
18:29 69.9 °F /  21.1 °C 54.0 °F /  12.2 °C 30.28 in /  1025.3 hPa NNE 6.1 mph /  9.8 km/h 9.2 mph /  14.8 km/h 57 % 0.00 in /  0 mm
18:34 69.6 °F /  20.9 °C 53.7 °F /  12.1 °C 30.28 in /  1025.3 hPa NNE 2.8 mph /  4.5 km/h 6.9 mph /  11.1 km/h 57 % 0.00 in /  0 mm
18:39 69.4 °F /  20.8 °C 54.0 °F /  12.2 °C 30.28 in /  1025.3 hPa NNE 1.1 mph /  1.8 km/h 4.6 mph /  7.4 km/h 58 % 0.00 in /  0 mm
18:44 69.2 °F /  20.7 °C 53.3 °F /  11.8 °C 30.28 in /  1025.3 hPa North 5.6 mph /  9 km/h 6.0 mph /  9.7 km/h 57 % 0.00 in /  0 mm
18:49 69.0 °F /  20.6 °C 54.1 °F /  12.3 °C 30.28 in /  1025.3 hPa NE 3.3 mph /  5.3 km/h 6.0 mph /  9.7 km/h 59 % 0.00 in /  0 mm
18:54 68.8 °F /  20.4 °C 53.4 °F /  11.9 °C 30.28 in /  1025.3 hPa North 2.0 mph /  3.2 km/h 3.5 mph /  5.6 km/h 58 % 0.00 in /  0 mm
18:59 68.6 °F /  20.3 °C 53.7 °F /  12.1 °C 30.28 in /  1025.3 hPa NNE 2.3 mph /  3.7 km/h 4.6 mph /  7.4 km/h 59 % 0.00 in /  0 mm
19:04 68.4 °F /  20.2 °C 53.5 °F /  11.9 °C 30.28 in /  1025.3 hPa Calm   3.5 mph /  5.6 km/h 59 % 0.00 in /  0 mm
19:09 68.3 °F /  20.2 °C 53.4 °F /  11.9 °C 30.28 in /  1025.3 hPa NNW 2.0 mph /  3.2 km/h 5.0 mph /  8 km/h 59 % 0.00 in /  0 mm
19:14 68.2 °F /  20.1 °C 53.3 °F /  11.8 °C 30.28 in /  1025.3 hPa NNW 0.7 mph /  1.1 km/h 3.5 mph /  5.6 km/h 59 % 0.00 in /  0 mm
19:19 68.1 °F /  20.1 °C 53.7 °F /  12.1 °C 30.28 in /  1025.3 hPa NNW 3.4 mph /  5.5 km/h 5.0 mph /  8 km/h 60 % 0.00 in /  0 mm
19:25 68.0 °F /  20 °C 53.6 °F /  12 °C 30.28 in /  1025.3 hPa North 1.0 mph /  1.6 km/h 4.0 mph /  6.4 km/h 60 % 0.00 in /  0 mm
19:30 67.9 °F /  19.9 °C 53.5 °F /  11.9 °C 30.28 in /  1025.3 hPa NW 0.8 mph /  1.3 km/h 3.5 mph /  5.6 km/h 60 % 0.00 in /  0 mm
19:35 67.7 °F /  19.8 °C 53.3 °F /  11.8 °C 30.28 in /  1025.3 hPa WNW 2.1 mph /  3.4 km/h 6.0 mph /  9.7 km/h 60 % 0.00 in /  0 mm
19:40 67.6 °F /  19.8 °C 52.8 °F /  11.6 °C 30.28 in /  1025.3 hPa NNW 0.5 mph /  0.8 km/h 3.5 mph /  5.6 km/h 59 % 0.00 in /  0 mm
19:45 67.4 °F /  19.7 °C 52.6 °F /  11.4 °C 30.28 in /  1025.3 hPa NW 1.5 mph /  2.4 km/h 3.5 mph /  5.6 km/h 59 % 0.00 in /  0 mm
19:50 67.2 °F /  19.6 °C 52.8 °F /  11.6 °C 30.28 in /  1025.3 hPa NNW 0.2 mph /  0.3 km/h 2.3 mph /  3.7 km/h 60 % 0.00 in /  0 mm
19:55 67.1 °F /  19.5 °C 52.3 °F /  11.3 °C 30.28 in /  1025.3 hPa NNE 3.4 mph /  5.5 km/h 6.9 mph /  11.1 km/h 59 % 0.00 in /  0 mm
20:00 67.0 °F /  19.4 °C 52.2 °F /  11.2 °C 30.28 in /  1025.3 hPa North 0.5 mph /  0.8 km/h 4.6 mph /  7.4 km/h 59 % 0.00 in /  0 mm
20:05 66.9 °F /  19.4 °C 52.6 °F /  11.4 °C 30.28 in /  1025.3 hPa North 0.5 mph /  0.8 km/h 2.3 mph /  3.7 km/h 60 % 0.00 in /  0 mm
20:10 66.9 °F /  19.4 °C 53.0 °F /  11.7 °C 30.28 in /  1025.3 hPa NE 1.8 mph /  2.9 km/h 6.9 mph /  11.1 km/h 61 % 0.00 in /  0 mm
20:15 66.7 °F /  19.3 °C 52.8 °F /  11.6 °C 30.28 in /  1025.3 hPa NW 0.1 mph /  0.2 km/h 1.2 mph /  1.9 km/h 61 % 0.00 in /  0 mm
20:20 66.7 °F /  19.3 °C 52.8 °F /  11.6 °C 30.28 in /  1025.3 hPa WNW 2.9 mph /  4.7 km/h 3.5 mph /  5.6 km/h 61 % 0.00 in /  0 mm
20:21 66.6 °F /  19.2 °C 52.7 °F /  11.5 °C 30.28 in /  1025.3 hPa WNW 1.9 mph /  3.1 km/h 4.6 mph /  7.4 km/h 61 % 0.00 in /  0 mm
20:26 66.6 °F /  19.2 °C 52.7 °F /  11.5 °C 30.28 in /  1025.3 hPa NNE 1.1 mph /  1.8 km/h 6.9 mph /  11.1 km/h 61 % 0.00 in /  0 mm
20:31 66.5 °F /  19.2 °C 52.6 °F /  11.4 °C 30.28 in /  1025.3 hPa NNW 4.4 mph /  7.1 km/h 9.0 mph /  14.5 km/h 61 % 0.00 in /  0 mm
20:36 66.4 °F /  19.1 °C 52.5 °F /  11.4 °C 30.29 in /  1025.6 hPa NE 4.5 mph /  7.2 km/h 6.0 mph /  9.7 km/h 61 % 0.00 in /  0 mm
20:41 66.3 °F /  19.1 °C 52.4 °F /  11.3 °C 30.29 in /  1025.6 hPa NNE 3.4 mph /  5.5 km/h 5.8 mph /  9.3 km/h 61 % 0.00 in /  0 mm
20:46 66.3 °F /  19.1 °C 52.9 °F /  11.6 °C 30.29 in /  1025.6 hPa NNE 2.7 mph /  4.3 km/h 5.8 mph /  9.3 km/h 62 % 0.00 in /  0 mm
20:51 66.3 °F /  19.1 °C 52.9 °F /  11.6 °C 30.29 in /  1025.6 hPa NNW 4.1 mph /  6.6 km/h 8.1 mph /  13 km/h 62 % 0.00 in /  0 mm
20:56 66.2 °F /  19 °C 53.2 °F /  11.8 °C 30.29 in /  1025.6 hPa North 3.9 mph /  6.3 km/h 6.9 mph /  11.1 km/h 63 % 0.00 in /  0 mm
21:01 66.1 °F /  18.9 °C 53.1 °F /  11.7 °C 30.29 in /  1025.6 hPa NNE 3.1 mph /  5 km/h 6.9 mph /  11.1 km/h 63 % 0.00 in /  0 mm
21:06 66.1 °F /  18.9 °C 52.7 °F /  11.5 °C 30.29 in /  1025.6 hPa North 4.4 mph /  7.1 km/h 8.1 mph /  13 km/h 62 % 0.00 in /  0 mm
21:11 66.0 °F /  18.9 °C 53.0 °F /  11.7 °C 30.29 in /  1025.6 hPa NNW 3.9 mph /  6.3 km/h 5.8 mph /  9.3 km/h 63 % 0.00 in /  0 mm
21:16 66.0 °F /  18.9 °C 53.5 °F /  11.9 °C 30.29 in /  1025.6 hPa North 2.3 mph /  3.7 km/h 4.6 mph /  7.4 km/h 64 % 0.00 in /  0 mm
21:21 65.9 °F /  18.8 °C 53.4 °F /  11.9 °C 30.29 in /  1025.6 hPa NNE 1.4 mph /  2.3 km/h 3.5 mph /  5.6 km/h 64 % 0.00 in /  0 mm
21:26 65.8 °F /  18.8 °C 53.3 °F /  11.8 °C 30.29 in /  1025.6 hPa NNE 4.6 mph /  7.4 km/h 8.1 mph /  13 km/h 64 % 0.00 in /  0 mm
21:31 65.7 °F /  18.7 °C 52.8 °F /  11.6 °C 30.29 in /  1025.6 hPa North 2.9 mph /  4.7 km/h 5.8 mph /  9.3 km/h 63 % 0.00 in /  0 mm
21:36 65.7 °F /  18.7 °C 53.2 °F /  11.8 °C 30.29 in /  1025.6 hPa North 2.6 mph /  4.2 km/h 5.8 mph /  9.3 km/h 64 % 0.00 in /  0 mm
21:41 65.6 °F /  18.7 °C 53.1 °F /  11.7 °C 30.29 in /  1025.6 hPa NNE 2.3 mph /  3.7 km/h 5.8 mph /  9.3 km/h 64 % 0.00 in /  0 mm
21:46 65.5 °F /  18.6 °C 53.4 °F /  11.9 °C 30.29 in /  1025.6 hPa North 3.5 mph /  5.6 km/h 4.0 mph /  6.4 km/h 65 % 0.00 in /  0 mm
21:51 65.4 °F /  18.6 °C 53.3 °F /  11.8 °C 30.29 in /  1025.6 hPa North 1.9 mph /  3.1 km/h 4.0 mph /  6.4 km/h 65 % 0.00 in /  0 mm
21:56 65.3 °F /  18.5 °C 53.2 °F /  11.8 °C 30.29 in /  1025.6 hPa NNW 0.5 mph /  0.8 km/h 3.5 mph /  5.6 km/h 65 % 0.00 in /  0 mm
21:57 65.3 °F /  18.5 °C 53.2 °F /  11.8 °C 30.29 in /  1025.6 hPa NNE 1.5 mph /  2.4 km/h 4.0 mph /  6.4 km/h 65 % 0.00 in /  0 mm
22:02 65.2 °F /  18.4 °C 53.6 °F /  12 °C 30.30 in /  1026 hPa North 0.5 mph /  0.8 km/h 4.0 mph /  6.4 km/h 66 % 0.00 in /  0 mm
22:07 65.1 °F /  18.4 °C 53.9 °F /  12.2 °C 30.30 in /  1026 hPa NE 0.4 mph /  0.6 km/h 3.5 mph /  5.6 km/h 67 % 0.00 in /  0 mm
22:12 65.0 °F /  18.3 °C 53.8 °F /  12.1 °C 30.30 in /  1026 hPa NNE 0.3 mph /  0.5 km/h 3.5 mph /  5.6 km/h 67 % 0.00 in /  0 mm
22:17 65.0 °F /  18.3 °C 54.2 °F /  12.3 °C 30.30 in /  1026 hPa WNW 0.2 mph /  0.3 km/h 3.5 mph /  5.6 km/h 68 % 0.00 in /  0 mm
22:22 64.8 °F /  18.2 °C 53.6 °F /  12 °C 30.30 in /  1026 hPa NNE 0.1 mph /  0.2 km/h 3.5 mph /  5.6 km/h 67 % 0.00 in /  0 mm
22:27 64.7 °F /  18.2 °C 53.9 °F /  12.2 °C 30.30 in /  1026 hPa Calm     68 % 0.00 in /  0 mm
22:32 64.6 °F /  18.1 °C 53.8 °F /  12.1 °C 30.31 in /  1026.3 hPa NW 1.3 mph /  2.1 km/h 4.6 mph /  7.4 km/h 68 % 0.00 in /  0 mm
22:37 64.5 °F /  18.1 °C 53.7 °F /  12.1 °C 30.30 in /  1026 hPa WNW 1.0 mph /  1.6 km/h 3.5 mph /  5.6 km/h 68 % 0.00 in /  0 mm
22:42 64.4 °F /  18 °C 53.6 °F /  12 °C 30.31 in /  1026.3 hPa NW 0.4 mph /  0.6 km/h 1.2 mph /  1.9 km/h 68 % 0.00 in /  0 mm
22:48 64.2 °F /  17.9 °C 53.8 °F /  12.1 °C 30.31 in /  1026.3 hPa NW 0.1 mph /  0.2 km/h 1.2 mph /  1.9 km/h 69 % 0.00 in /  0 mm
22:53 64.1 °F /  17.8 °C 53.7 °F /  12.1 °C 30.31 in /  1026.3 hPa NNW 1.2 mph /  1.9 km/h 4.0 mph /  6.4 km/h 69 % 0.00 in /  0 mm
22:58 63.9 °F /  17.7 °C 53.5 °F /  11.9 °C 30.31 in /  1026.3 hPa NW 0.6 mph /  1 km/h 2.3 mph /  3.7 km/h 69 % 0.00 in /  0 mm
23:03 63.8 °F /  17.7 °C 53.4 °F /  11.9 °C 30.31 in /  1026.3 hPa WNW 1.2 mph /  1.9 km/h 3.5 mph /  5.6 km/h 69 % 0.00 in /  0 mm
23:08 63.6 °F /  17.6 °C 53.2 °F /  11.8 °C 30.31 in /  1026.3 hPa Calm   1.2 mph /  1.9 km/h 69 % 0.00 in /  0 mm
23:13 63.5 °F /  17.5 °C 53.5 °F /  11.9 °C 30.31 in /  1026.3 hPa Calm   1.2 mph /  1.9 km/h 70 % 0.00 in /  0 mm
23:20 63.3 °F /  17.4 °C 53.3 °F /  11.8 °C 30.30 in /  1026 hPa WNW 0.2 mph /  0.3 km/h 3.5 mph /  5.6 km/h 70 % 0.00 in /  0 mm
23:22 63.2 °F /  17.3 °C 53.3 °F /  11.8 °C 30.30 in /  1026 hPa NNW 2.3 mph /  3.7 km/h 4.0 mph /  6.4 km/h 70 % 0.00 in /  0 mm
23:27 63.0 °F /  17.2 °C 53.1 °F /  11.7 °C 30.31 in /  1026.3 hPa NW 0.5 mph /  0.8 km/h 3.5 mph /  5.6 km/h 70 % 0.00 in /  0 mm
23:29 62.9 °F /  17.2 °C 53.0 °F /  11.7 °C 30.31 in /  1026.3 hPa WNW 0.1 mph /  0.2 km/h 3.5 mph /  5.6 km/h 70 % 0.00 in /  0 mm
23:31 62.9 °F /  17.2 °C 53.0 °F /  11.7 °C 30.31 in /  1026.3 hPa NNW 0.3 mph /  0.5 km/h 3.5 mph /  5.6 km/h 70 % 0.00 in /  0 mm
23:33 62.8 °F /  17.1 °C 52.9 °F /  11.6 °C 30.30 in /  1026 hPa WNW 1.2 mph /  1.9 km/h 6.0 mph /  9.7 km/h 70 % 0.00 in /  0 mm
23:38 62.7 °F /  17.1 °C 52.8 °F /  11.6 °C 30.31 in /  1026.3 hPa North 0.2 mph /  0.3 km/h 3.5 mph /  5.6 km/h 70 % 0.00 in /  0 mm
23:41 62.7 °F /  17.1 °C 53.2 °F /  11.8 °C 30.30 in /  1026 hPa North 0.1 mph /  0.2 km/h 1.2 mph /  1.9 km/h 71 % 0.00 in /  0 mm
23:46 62.6 °F /  17 °C 53.1 °F /  11.7 °C 30.31 in /  1026.3 hPa Calm     71 % 0.00 in /  0 mm
23:51 62.5 °F /  16.9 °C 53.3 °F /  11.8 °C 30.30 in /  1026 hPa Calm     72 % 0.00 in /  0 mm
23:56 62.4 °F /  16.9 °C 53.6 °F /  12 °C 30.30 in /  1026 hPa Calm     73 % 0.00 in /  0 mm
Crab Meadow Weather
Compliments of Weather Underground - 3 mb

Script developed by  Jim McMurry - jmcmurry@mwt.net Adapted for the template by  Wim van der Kuil - Leuven-Template.eu

Weather Terms: Flash Flood Warning - Flash flooding is occurring, imminent or highly likely. A flash flood is a flood that occurs within 6 hours of excessive rainfall and that poses a threat to life and/or property. Ice jams and dam failures can also cause flash floods. These warnings are issued on a county by county basis by the local Weather Forecast Office in Upton and are generally in effect for up to 6 hours.